createdAt,value
2023-02-11T00:03:34.491Z,13.75
2023-02-11T00:08:36.314Z,13.20
2023-02-11T00:13:37.605Z,11.15
2023-02-11T00:18:38.994Z,11.52
2023-02-11T00:23:40.604Z,12.05
2023-02-11T00:28:41.925Z,12.63
2023-02-11T00:33:45.518Z,12.18
2023-02-11T00:38:47.399Z,11.95
2023-02-11T00:43:49.119Z,12.15
2023-02-11T00:48:57.478Z,11.73
2023-02-11T00:53:58.818Z,13.02
2023-02-11T00:59:00.248Z,11.95
2023-02-11T01:04:01.592Z,11.82
2023-02-11T01:09:02.964Z,13.07
2023-02-11T01:14:04.345Z,11.70
2023-02-11T01:19:05.708Z,12.43
2023-02-11T01:24:07.067Z,11.73
2023-02-11T01:29:09.451Z,13.90
2023-02-11T01:34:10.797Z,11.50
2023-02-11T01:39:12.144Z,11.63
2023-02-11T01:44:28.257Z,13.07
2023-02-11T01:49:33.960Z,13.48
2023-02-11T01:54:57.113Z,12.15
2023-02-11T02:00:21.781Z,11.85
2023-02-11T02:05:33.251Z,11.48
2023-02-11T02:10:36.525Z,10.70
2023-02-11T02:15:38.950Z,12.27
2023-02-11T02:20:59.206Z,11.30
2023-02-11T02:26:03.801Z,12.70
2023-02-11T02:31:14.256Z,11.45
2023-02-11T02:36:15.630Z,11.85
2023-02-11T02:41:18.922Z,10.50
2023-02-11T02:46:22.144Z,11.20
2023-02-11T02:51:35.661Z,10.90
2023-02-11T02:56:55.890Z,10.27
2023-02-11T03:02:02.664Z,11.30
2023-02-11T03:07:14.917Z,11.00
2023-02-11T03:12:17.019Z,11.77
2023-02-11T03:17:19.140Z,10.25
2023-02-11T03:22:25.428Z,11.35
2023-02-11T03:27:28.787Z,10.98
2023-02-11T03:32:34.847Z,11.18
2023-02-11T03:37:41.652Z,10.13
2023-02-11T03:42:45.843Z,12.98
2023-02-11T03:47:50.791Z,10.85
2023-02-11T03:52:53.420Z,11.68
2023-02-11T03:57:54.893Z,12.15
2023-02-11T04:02:56.252Z,11.70
2023-02-11T04:07:57.714Z,11.27
2023-02-11T04:12:59.069Z,10.55
2023-02-11T04:18:00.430Z,11.55
2023-02-11T04:23:01.828Z,10.02
2023-02-11T04:28:03.272Z,12.13
2023-02-11T04:33:04.628Z,10.15
2023-02-11T04:38:05.972Z,11.52
2023-02-11T04:43:07.336Z,12.15
2023-02-11T04:48:08.695Z,10.82
2023-02-11T04:53:10.022Z,11.25
2023-02-11T04:58:11.334Z,10.48
2023-02-11T05:03:13.045Z,10.63
2023-02-11T05:08:14.362Z,10.77
2023-02-11T05:13:15.694Z,11.52
2023-02-11T05:18:16.991Z,11.07
2023-02-11T05:23:18.289Z,11.90
2023-02-11T05:28:19.646Z,11.50
2023-02-11T05:33:21.007Z,10.45
2023-02-11T05:38:22.343Z,11.77
2023-02-11T05:43:23.744Z,10.27
2023-02-11T05:48:25.085Z,9.75
2023-02-11T05:53:26.396Z,12.80
2023-02-11T05:58:27.978Z,11.65
2023-02-11T06:03:29.383Z,10.32
2023-02-11T06:08:30.849Z,10.70
2023-02-11T06:13:32.419Z,11.30
2023-02-11T06:18:33.846Z,11.40
2023-02-11T06:23:35.169Z,11.77
2023-02-11T06:28:38.780Z,10.85
2023-02-11T06:33:42.145Z,12.70
2023-02-11T06:38:43.579Z,12.48
2023-02-11T06:43:44.931Z,11.18
2023-02-11T06:48:46.289Z,11.55
2023-02-11T06:53:47.837Z,12.38
2023-02-11T06:58:52.108Z,12.43
2023-02-11T07:03:53.745Z,13.13
2023-02-11T07:08:55.670Z,12.85
2023-02-11T07:14:00.104Z,12.20
2023-02-11T07:19:01.536Z,14.57
2023-02-11T07:24:07.290Z,13.13
2023-02-11T07:29:10.289Z,12.52
2023-02-11T07:34:11.696Z,13.40
2023-02-11T07:39:13.541Z,13.25
2023-02-11T07:44:15.194Z,18.77
2023-02-11T07:49:16.820Z,13.13
2023-02-11T07:54:18.245Z,13.80
2023-02-11T07:59:20.757Z,14.27
2023-02-11T08:04:22.106Z,17.00
2023-02-11T08:09:23.478Z,17.33
2023-02-11T08:14:25.186Z,13.85
2023-02-11T08:19:27.389Z,15.02
2023-02-11T08:24:28.748Z,14.10
2023-02-11T08:29:30.445Z,14.70
2023-02-11T08:34:31.830Z,15.65
2023-02-11T08:39:33.351Z,15.95
2023-02-11T08:44:34.727Z,15.27
2023-02-11T08:49:36.270Z,15.43
2023-02-11T08:54:37.621Z,16.65
2023-02-11T08:59:39.994Z,14.80
2023-02-11T09:04:41.361Z,16.17
2023-02-11T09:09:42.776Z,15.82
2023-02-11T09:14:44.144Z,16.58
2023-02-11T09:19:45.457Z,16.13
2023-02-11T09:24:46.829Z,16.33
2023-02-11T09:29:48.160Z,15.75
2023-02-11T09:34:49.477Z,15.52
2023-02-11T09:39:50.926Z,16.23
2023-02-11T09:44:52.330Z,16.83
2023-02-11T09:49:56.957Z,17.27
2023-02-11T09:54:59.725Z,14.38
2023-02-11T10:00:16.397Z,16.60
2023-02-11T10:05:25.607Z,16.50
2023-02-11T10:10:45.736Z,15.15
2023-02-11T10:15:51.336Z,17.45
2023-02-11T10:20:52.895Z,16.90
2023-02-11T10:25:56.289Z,16.17
2023-02-11T10:30:57.811Z,16.48
2023-02-11T10:36:00.498Z,16.58
2023-02-11T10:43:42.296Z,17.27
2023-02-11T10:48:45.659Z,16.77
2023-02-11T10:53:48.258Z,16.65
2023-02-11T10:59:04.505Z,16.27
2023-02-11T11:04:06.150Z,17.48
2023-02-11T11:09:21.709Z,16.88
2023-02-11T11:14:25.965Z,16.90
2023-02-11T11:19:27.574Z,17.38
2023-02-11T11:24:31.967Z,16.92
2023-02-11T11:30:08.670Z,17.58
2023-02-11T11:35:29.463Z,17.20
2023-02-11T11:40:32.039Z,19.52
2023-02-11T11:45:33.418Z,18.50
2023-02-11T11:50:50.102Z,17.80
2023-02-11T11:56:02.981Z,21.08
2023-02-11T12:01:23.062Z,18.15
2023-02-11T12:06:24.421Z,16.73
2023-02-11T12:11:30.834Z,17.10
2023-02-11T12:16:52.540Z,18.70
2023-02-11T12:22:00.330Z,18.83
2023-02-11T12:27:11.219Z,16.92
2023-02-11T12:32:17.702Z,16.58
2023-02-11T12:37:19.703Z,19.33
2023-02-11T12:42:50.724Z,16.70
2023-02-11T12:48:07.082Z,18.45
2023-02-11T12:53:24.124Z,18.05
2023-02-11T12:58:35.638Z,16.48
2023-02-11T13:03:46.829Z,17.17
2023-02-11T13:08:58.384Z,16.98
2023-02-11T13:13:59.684Z,17.92
2023-02-11T13:19:12.975Z,17.73
2023-02-11T13:24:29.634Z,17.58
2023-02-11T13:29:42.638Z,17.10
2023-02-11T13:34:43.937Z,16.98
2023-02-11T13:39:56.134Z,18.45
2023-02-11T13:44:57.906Z,17.05
2023-02-11T13:50:00.038Z,17.33
2023-02-11T13:55:14.708Z,18.33
2023-02-11T14:00:34.561Z,16.77
2023-02-11T14:11:10.853Z,18.85
2023-02-11T14:16:20.491Z,17.42
2023-02-11T14:21:30.283Z,18.55
2023-02-11T14:26:35.127Z,19.77
2023-02-11T14:31:43.752Z,17.05
2023-02-11T14:36:51.679Z,18.40
2023-02-11T14:41:53.670Z,17.30
2023-02-11T14:46:55.471Z,19.25
2023-02-11T14:52:02.144Z,18.40
2023-02-11T14:57:07.465Z,17.05
2023-02-11T15:02:23.062Z,17.15
2023-02-11T15:07:28.945Z,19.73
2023-02-11T15:12:30.306Z,17.20
2023-02-11T15:17:31.983Z,18.35
2023-02-11T15:22:36.438Z,19.83
2023-02-11T15:27:45.160Z,17.70
2023-02-11T15:32:46.851Z,17.37
2023-02-11T15:37:50.622Z,18.20
2023-02-11T15:42:53.874Z,17.95
2023-02-11T15:48:01.578Z,18.88
2023-02-11T15:53:05.705Z,18.73
2023-02-11T15:58:09.656Z,19.27
2023-02-11T16:03:24.591Z,18.48
2023-02-11T16:08:29.617Z,18.80
2023-02-11T16:13:34.189Z,19.80
2023-02-11T16:18:40.264Z,21.48
2023-02-11T16:23:42.462Z,20.27
2023-02-11T16:28:43.828Z,19.00
2023-02-11T16:33:45.382Z,20.55
2023-02-11T16:38:46.726Z,19.40
2023-02-11T16:43:48.036Z,18.80
2023-02-11T16:48:49.442Z,20.80
2023-02-11T16:53:50.786Z,20.60
2023-02-11T16:58:52.096Z,20.83
2023-02-11T17:03:53.946Z,20.35
2023-02-11T17:08:55.261Z,20.25
2023-02-11T17:13:56.588Z,21.48
2023-02-11T17:18:57.945Z,19.55
2023-02-11T17:23:59.306Z,22.38
2023-02-11T17:29:00.667Z,20.08
2023-02-11T17:34:02.234Z,23.42
2023-02-11T17:39:06.968Z,21.30
2023-02-11T17:44:10.469Z,23.05
2023-02-11T17:49:12.116Z,22.50
2023-02-11T17:54:14.976Z,20.42
2023-02-11T17:59:16.539Z,22.48
2023-02-11T18:04:18.858Z,22.27
2023-02-11T18:09:20.340Z,22.27
2023-02-11T18:14:22.360Z,22.02
2023-02-11T18:19:23.731Z,21.00
2023-02-11T18:24:25.171Z,21.85
2023-02-11T18:29:26.621Z,21.38
2023-02-11T18:34:28.625Z,24.40
2023-02-11T18:39:30.107Z,22.73
2023-02-11T18:44:31.626Z,21.83
2023-02-11T18:49:35.609Z,23.08
2023-02-11T18:54:36.949Z,24.17
2023-02-11T18:59:38.271Z,22.45
2023-02-11T19:04:39.681Z,21.92
2023-02-11T19:09:41.126Z,23.65
2023-02-11T19:14:42.537Z,24.42
2023-02-11T19:19:44.029Z,21.67
2023-02-11T19:24:45.799Z,22.63
2023-02-11T19:29:47.215Z,22.13
2023-02-11T19:34:48.751Z,22.27
2023-02-11T19:39:50.061Z,21.55
2023-02-11T19:44:51.578Z,20.58
2023-02-11T19:49:53.270Z,23.67
2023-02-11T19:54:54.574Z,23.67
2023-02-11T19:59:56.856Z,23.60
2023-02-11T20:04:58.184Z,23.27
2023-02-11T20:09:59.851Z,22.02
2023-02-11T20:15:01.183Z,21.42
2023-02-11T20:20:02.504Z,21.15
2023-02-11T20:25:04.353Z,23.05
2023-02-11T20:30:06.040Z,22.05
2023-02-11T20:35:08.059Z,24.45
2023-02-11T20:40:09.542Z,23.30
2023-02-11T20:45:10.909Z,21.42
2023-02-11T20:50:12.537Z,22.20
2023-02-11T20:55:13.905Z,21.38
2023-02-11T21:00:15.395Z,22.38
2023-02-11T21:05:16.742Z,24.05
2023-02-11T21:10:18.291Z,22.38
2023-02-11T21:15:19.737Z,21.73
2023-02-11T21:20:21.119Z,20.73
2023-02-11T21:25:22.528Z,22.15
2023-02-11T21:30:23.978Z,20.98
2023-02-11T21:35:25.379Z,20.35
2023-02-11T21:40:29.755Z,21.35
2023-02-11T21:45:32.468Z,21.63
2023-02-11T21:50:33.950Z,22.42
2023-02-11T21:55:35.866Z,20.23
2023-02-11T22:00:37.308Z,24.00
2023-02-11T22:05:39.743Z,22.38
2023-02-11T22:10:41.211Z,23.08
2023-02-11T22:15:42.534Z,20.90
2023-02-11T22:20:43.866Z,20.85
2023-02-11T22:25:45.242Z,20.35
2023-02-11T22:30:51.808Z,21.27
2023-02-11T22:36:03.731Z,23.92
2023-02-11T22:41:06.120Z,20.85
2023-02-11T22:46:07.732Z,18.60
2023-02-11T22:51:11.804Z,21.90
2023-02-11T22:56:15.507Z,21.52
2023-02-11T23:01:17.380Z,21.02
2023-02-11T23:06:18.781Z,20.50
2023-02-11T23:11:21.808Z,21.77
2023-02-11T23:16:25.218Z,20.08
2023-02-11T23:21:28.330Z,20.77
2023-02-11T23:26:29.944Z,20.55
2023-02-11T23:31:37.801Z,21.10
2023-02-11T23:36:39.343Z,20.63
2023-02-11T23:41:40.678Z,21.13
2023-02-11T23:46:42.048Z,21.15
2023-02-11T23:51:43.447Z,20.00
2023-02-11T23:56:44.850Z,20.70
